Hawk — LAGF7 — position and weather

sailwx.info

Track history (hours):
 
Tides and Currents Weather Stations Pressure Air Temp Water Temp Dewpoint Dewpoint Depression Visibility Wind Speed Wind Dir Waves Ship Positions

Hawk

Last reported at 2016-Jun-24 01:30 UTC. Time now 2016-Jun-28 20:39 UTC.
Position N 01°15' E 104°06'.

Length 223 m; draft 9 m.

Type: Ship. MMSI: 259848000.

Date/timePositionNaut miles runAvg speedWind from/ knotsBaromVisibWave heightAir tempDewpointWater temp
2016-Jun-24 01:30N 01°15' E 104°06'1212.3
2016-Jun-24 00:33N 01°14' E 103°55'2 2.1
2016-Jun-23 23:31N 01°15' E 103°53'0 0.1
2016-Jun-23 22:31N 01°15' E 103°53'0 0.1
2016-Jun-23 21:31N 01°15' E 103°53'0 0.0
2016-Jun-23 20:28N 01°15' E 103°53'0 0.1
2016-Jun-23 19:31N 01°15' E 103°53'0 0.0
2016-Jun-23 18:31N 01°15' E 103°53'0 0.2
2016-Jun-23 17:31N 01°15' E 103°53'0 0.1
2016-Jun-23 16:28N 01°15' E 103°53'0 0.0
2016-Jun-23 15:31N 01°15' E 103°53'0 0.0
2016-Jun-23 14:31N 01°15' E 103°53'0 0.0
2016-Jun-23 13:31N 01°15' E 103°53'0 0.0
2016-Jun-23 12:28N 01°15' E 103°53'0 0.0
2016-Jun-23 11:25N 01°15' E 103°53'0 0.0
2016-Jun-23 10:31N 01°15' E 103°53'0 0.0
2016-Jun-23 09:31N 01°15' E 103°53'0 0.0
2016-Jun-23 08:31N 01°15' E 103°53'0 0.0
2016-Jun-23 07:28N 01°15' E 103°53'0 0.0
2016-Jun-23 05:28N 01°15' E 103°53'0 0.0
2016-Jun-23 04:31N 01°15' E 103°53'0 0.0
2016-Jun-23 03:31N 01°15' E 103°53'2 1.8
2016-Jun-23 02:33N 01°14' E 103°54'7 7.4
2016-Jun-23 01:33N 01°16' E 104°02'  
2016-Jun-16 03:04N 01°15' E 104°08'612.6
2016-Jun-16 02:33N 01°15' E 104°01'8 7.8
2016-Jun-16 01:34N 01°17' E 103°54'1 0.9
2016-Jun-16 00:31N 01°17' E 103°53'0 0.0
2016-Jun-15 23:31N 01°17' E 103°53'0 0.1
2016-Jun-15 22:31N 01°17' E 103°53'0 0.0
2016-Jun-15 21:31N 01°17' E 103°53'0 0.0
2016-Jun-15 20:31N 01°17' E 103°53'0 0.1
2016-Jun-15 19:31N 01°17' E 103°53'0 0.0
2016-Jun-15 18:31N 01°17' E 103°53'0 0.1
2016-Jun-15 17:31N 01°16' E 103°53'0 0.1
2016-Jun-15 16:31N 01°17' E 103°53'0 0.0
2016-Jun-15 15:31N 01°17' E 103°53'0 0.0
2016-Jun-15 14:31N 01°17' E 103°53'0 0.0
2016-Jun-15 13:31N 01°17' E 103°53'0 0.1
2016-Jun-15 12:31N 01°17' E 103°53'0 0.1
2016-Jun-15 11:19N 01°16' E 103°53'0 0.0
2016-Jun-15 10:25N 01°16' E 103°53'0 0.1
2016-Jun-15 09:28N 01°16' E 103°53'0 0.0
2016-Jun-15 08:31N 01°16' E 103°53'0 0.1
2016-Jun-15 07:31N 01°16' E 103°53'0 0.1
2016-Jun-15 06:31N 01°16' E 103°53'0 0.1
2016-Jun-15 05:25N 01°16' E 103°53'0 0.1
2016-Jun-15 04:25N 01°16' E 103°53'0 0.0
2016-Jun-15 03:31N 01°16' E 103°53'0 0.2
2016-Jun-15 02:28N 01°17' E 103°53'0 0.0
2016-Jun-15 01:31N 01°17' E 103°53'0 0.0
2016-Jun-15 00:25N 01°17' E 103°53'0 0.0
2016-Jun-14 23:31N 01°17' E 103°53'0 0.0
2016-Jun-14 22:31N 01°17' E 103°53'0 0.1
2016-Jun-14 21:28N 01°17' E 103°53'0 0.0
2016-Jun-14 20:31N 01°17' E 103°53'0 0.0
2016-Jun-14 19:31N 01°17' E 103°53'0 0.1
2016-Jun-14 18:31N 01°17' E 103°53'0 0.1
2016-Jun-14 17:31N 01°17' E 103°53'0 0.1
2016-Jun-14 16:25N 01°17' E 103°53'0 0.0
2016-Jun-14 15:31N 01°17' E 103°53'0 0.1
2016-Jun-14 14:31N 01°16' E 103°53'0 0.0
2016-Jun-14 13:31N 01°16' E 103°53'0 0.1
2016-Jun-14 12:31N 01°17' E 103°53'0 0.1
2016-Jun-14 11:28N 01°16' E 103°53'0 0.0
2016-Jun-14 10:31N 01°16' E 103°53'0 0.0
2016-Jun-14 09:25N 01°16' E 103°53'0 0.1
2016-Jun-14 08:31N 01°17' E 103°53'0 0.0
2016-Jun-14 07:31N 01°16' E 103°53'0 0.0
2016-Jun-14 04:31N 01°17' E 103°53'0 0.0
2016-Jun-14 03:22N 01°17' E 103°53'0 0.1
2016-Jun-14 02:31N 01°16' E 103°53'0 0.0
2016-Jun-14 01:31N 01°16' E 103°53'  
Track history (hours):
 
Tides and Currents Weather Stations Pressure Air Temp Water Temp Dewpoint Dewpoint Depression Visibility Wind Speed Wind Dir Waves Ship Positions

Hawk

Last reported at 2016-Jun-24 01:30 UTC. Time now 2016-Jun-28 20:39 UTC.
Position N 01°15' E 104°06'.

Length 223 m; draft 9 m.

Type: Ship. MMSI: 259848000.

Date/timePositionNaut miles runAvg speedWind from/ knotsBaromVisibWave heightAir tempDewpointWater temp
2016-Jun-24 01:30N 01°15' E 104°06'1212.3
2016-Jun-24 00:33N 01°14' E 103°55'2 2.1
2016-Jun-23 23:31N 01°15' E 103°53'0 0.1
2016-Jun-23 22:31N 01°15' E 103°53'0 0.1
2016-Jun-23 21:31N 01°15' E 103°53'0 0.0
2016-Jun-23 20:28N 01°15' E 103°53'0 0.1
2016-Jun-23 19:31N 01°15' E 103°53'0 0.0
2016-Jun-23 18:31N 01°15' E 103°53'0 0.2
2016-Jun-23 17:31N 01°15' E 103°53'0 0.1
2016-Jun-23 16:28N 01°15' E 103°53'0 0.0
2016-Jun-23 15:31N 01°15' E 103°53'0 0.0
2016-Jun-23 14:31N 01°15' E 103°53'0 0.0
2016-Jun-23 13:31N 01°15' E 103°53'0 0.0
2016-Jun-23 12:28N 01°15' E 103°53'0 0.0
2016-Jun-23 11:25N 01°15' E 103°53'0 0.0
2016-Jun-23 10:31N 01°15' E 103°53'0 0.0
2016-Jun-23 09:31N 01°15' E 103°53'0 0.0
2016-Jun-23 08:31N 01°15' E 103°53'0 0.0
2016-Jun-23 07:28N 01°15' E 103°53'0 0.0
2016-Jun-23 05:28N 01°15' E 103°53'0 0.0
2016-Jun-23 04:31N 01°15' E 103°53'0 0.0
2016-Jun-23 03:31N 01°15' E 103°53'2 1.8
2016-Jun-23 02:33N 01°14' E 103°54'7 7.4
2016-Jun-23 01:33N 01°16' E 104°02'  
2016-Jun-16 03:04N 01°15' E 104°08'612.6
2016-Jun-16 02:33N 01°15' E 104°01'8 7.8
2016-Jun-16 01:34N 01°17' E 103°54'1 0.9
2016-Jun-16 00:31N 01°17' E 103°53'0 0.0
2016-Jun-15 23:31N 01°17' E 103°53'0 0.1
2016-Jun-15 22:31N 01°17' E 103°53'0 0.0
2016-Jun-15 21:31N 01°17' E 103°53'0 0.0
2016-Jun-15 20:31N 01°17' E 103°53'0 0.1
2016-Jun-15 19:31N 01°17' E 103°53'0 0.0
2016-Jun-15 18:31N 01°17' E 103°53'0 0.1
2016-Jun-15 17:31N 01°16' E 103°53'0 0.1
2016-Jun-15 16:31N 01°17' E 103°53'0 0.0
2016-Jun-15 15:31N 01°17' E 103°53'0 0.0
2016-Jun-15 14:31N 01°17' E 103°53'0 0.0
2016-Jun-15 13:31N 01°17' E 103°53'0 0.1
2016-Jun-15 12:31N 01°17' E 103°53'0 0.1
2016-Jun-15 11:19N 01°16' E 103°53'0 0.0
2016-Jun-15 10:25N 01°16' E 103°53'0 0.1
2016-Jun-15 09:28N 01°16' E 103°53'0 0.0
2016-Jun-15 08:31N 01°16' E 103°53'0 0.1
2016-Jun-15 07:31N 01°16' E 103°53'0 0.1
2016-Jun-15 06:31N 01°16' E 103°53'0 0.1
2016-Jun-15 05:25N 01°16' E 103°53'0 0.1
2016-Jun-15 04:25N 01°16' E 103°53'0 0.0
2016-Jun-15 03:31N 01°16' E 103°53'0 0.2
2016-Jun-15 02:28N 01°17' E 103°53'0 0.0
2016-Jun-15 01:31N 01°17' E 103°53'0 0.0
2016-Jun-15 00:25N 01°17' E 103°53'0 0.0
2016-Jun-14 23:31N 01°17' E 103°53'0 0.0
2016-Jun-14 22:31N 01°17' E 103°53'0 0.1
2016-Jun-14 21:28N 01°17' E 103°53'0 0.0
2016-Jun-14 20:31N 01°17' E 103°53'0 0.0
2016-Jun-14 19:31N 01°17' E 103°53'0 0.1
2016-Jun-14 18:31N 01°17' E 103°53'0 0.1
2016-Jun-14 17:31N 01°17' E 103°53'0 0.1
2016-Jun-14 16:25N 01°17' E 103°53'0 0.0
2016-Jun-14 15:31N 01°17' E 103°53'0 0.1
2016-Jun-14 14:31N 01°16' E 103°53'0 0.0
2016-Jun-14 13:31N 01°16' E 103°53'0 0.1
2016-Jun-14 12:31N 01°17' E 103°53'0 0.1
2016-Jun-14 11:28N 01°16' E 103°53'0 0.0
2016-Jun-14 10:31N 01°16' E 103°53'0 0.0
2016-Jun-14 09:25N 01°16' E 103°53'0 0.1
2016-Jun-14 08:31N 01°17' E 103°53'0 0.0
2016-Jun-14 07:31N 01°16' E 103°53'0 0.0
2016-Jun-14 04:31N 01°17' E 103°53'0 0.0
2016-Jun-14 03:22N 01°17' E 103°53'0 0.1
2016-Jun-14 02:31N 01°16' E 103°53'0 0.0
2016-Jun-14 01:31N 01°16' E 103°53'  

Dump ship's entire track history